createdAt,value
2018-01-12T00:00:20.969Z,1023.63
2018-01-12T00:01:29.798Z,1023.64
2018-01-12T00:02:38.626Z,1023.68
2018-01-12T00:03:47.455Z,1023.65
2018-01-12T00:04:56.283Z,1023.7
2018-01-12T00:06:05.265Z,1023.65
2018-01-12T00:07:14.096Z,1023.66
2018-01-12T00:08:22.926Z,1023.74
2018-01-12T00:09:31.753Z,1023.73
2018-01-12T00:10:40.583Z,1023.72
2018-01-12T00:11:49.412Z,1023.71
2018-01-12T00:12:58.512Z,1023.72
2018-01-12T00:14:07.340Z,1023.71
2018-01-12T00:15:16.170Z,1023.75
2018-01-12T00:16:24.998Z,1023.79
2018-01-12T00:17:34.127Z,1023.72
2018-01-12T00:18:42.952Z,1023.71
2018-01-12T00:19:51.788Z,1023.73
2018-01-12T00:21:00.610Z,1023.75
2018-01-12T00:22:09.437Z,1023.78
2018-01-12T00:23:18.418Z,1023.73
2018-01-12T00:24:27.246Z,1023.77
2018-01-12T00:25:36.653Z,1023.74
2018-01-12T00:26:45.729Z,1023.76
2018-01-12T00:27:54.556Z,1023.74
2018-01-12T00:29:03.486Z,1023.74
2018-01-12T00:30:12.313Z,1023.75
2018-01-12T00:31:21.138Z,1023.76
2018-01-12T00:32:29.964Z,1023.78
2018-01-12T00:33:38.795Z,1023.83
2018-01-12T00:34:47.894Z,1023.85
2018-01-12T00:35:56.719Z,1023.8
2018-01-12T00:37:05.548Z,1023.82
2018-01-12T00:38:14.710Z,1023.82
2018-01-12T00:39:23.536Z,1023.83
2018-01-12T00:40:32.465Z,1023.83
2018-01-12T00:41:41.571Z,1023.81
2018-01-12T00:42:50.397Z,1023.82
2018-01-12T00:43:59.227Z,1023.83
2018-01-12T00:45:08.335Z,1023.84
2018-01-12T00:46:17.588Z,1023.81
2018-01-12T00:47:26.414Z,1023.83
2018-01-12T00:48:35.242Z,1023.87
2018-01-12T00:49:44.068Z,1023.87
2018-01-12T00:50:52.898Z,1023.87
2018-01-12T00:52:01.877Z,1023.85
2018-01-12T00:53:10.703Z,1023.85
2018-01-12T00:54:19.532Z,1023.86
2018-01-12T00:55:28.635Z,1023.86
2018-01-12T00:56:37.738Z,1023.84
2018-01-12T00:57:46.887Z,1023.85
2018-01-12T00:58:55.717Z,1023.85
2018-01-12T01:00:04.546Z,1023.87
2018-01-12T01:01:13.374Z,1023.88
2018-01-12T01:02:22.200Z,1023.93
2018-01-12T01:03:31.185Z,1023.89
2018-01-12T01:04:40.007Z,1023.91
2018-01-12T01:05:48.835Z,1023.91
2018-01-12T01:06:57.665Z,1023.92
2018-01-12T01:08:06.494Z,1023.91
2018-01-12T01:09:15.624Z,1023.92
2018-01-12T01:10:24.453Z,1023.92
2018-01-12T01:11:33.281Z,1023.88
2018-01-12T01:12:42.114Z,1023.94
2018-01-12T01:13:50.940Z,1023.95
2018-01-12T01:14:59.819Z,1023.96
2018-01-12T01:16:08.647Z,1023.97
2018-01-12T01:17:17.476Z,1023.96
2018-01-12T01:18:26.571Z,1023.96
2018-01-12T01:19:35.399Z,1023.97
2018-01-12T01:20:44.379Z,1023.98
2018-01-12T01:21:53.207Z,1023.98
2018-01-12T01:23:02.308Z,1023.98
2018-01-12T01:24:11.140Z,1023.97
2018-01-12T01:25:19.969Z,1024.03
2018-01-12T01:26:29.074Z,1024.05
2018-01-12T01:27:37.903Z,1024.03
2018-01-12T01:28:46.736Z,1024.02
2018-01-12T01:29:55.560Z,1024.1
2018-01-12T01:31:04.388Z,1024.09
2018-01-12T01:32:13.216Z,1024.14
2018-01-12T01:33:22.044Z,1024.14
2018-01-12T01:34:30.875Z,1024.12
2018-01-12T01:35:39.980Z,1024.12
2018-01-12T01:36:48.808Z,1024.12
2018-01-12T01:37:57.632Z,1024.15
2018-01-12T01:39:06.458Z,1024.16
2018-01-12T01:40:15.286Z,1024.17
2018-01-12T01:41:24.114Z,1024.2
2018-01-12T01:42:32.943Z,1024.21
2018-01-12T01:43:42.071Z,1024.21
2018-01-12T01:44:51.175Z,1024.19
2018-01-12T01:46:00.006Z,1024.2
2018-01-12T01:47:08.831Z,1024.23
2018-01-12T01:48:17.661Z,1024.23
2018-01-12T01:49:26.488Z,1024.25
2018-01-12T01:50:35.590Z,1024.26
2018-01-12T01:51:44.966Z,1024.28
2018-01-12T01:52:53.795Z,1024.29
2018-01-12T01:54:02.621Z,1024.27
2018-01-12T01:55:11.500Z,1024.23
2018-01-12T01:56:20.609Z,1024.3
2018-01-12T01:57:29.451Z,1024.27
2018-01-12T01:58:38.279Z,1024.29
2018-01-12T01:59:47.109Z,1024.27
2018-01-12T02:00:56.041Z,1024.29
2018-01-12T02:02:04.868Z,1024.27
2018-01-12T02:03:13.697Z,1024.32
2018-01-12T02:04:22.794Z,1024.29
2018-01-12T02:05:31.622Z,1024.32
2018-01-12T02:06:40.601Z,1024.32
2018-01-12T02:07:49.428Z,1024.39
2018-01-12T02:08:58.256Z,1024.34
2018-01-12T02:10:07.086Z,1024.36
2018-01-12T02:11:16.187Z,1024.37
2018-01-12T02:12:25.165Z,1024.37
2018-01-12T02:13:33.994Z,1024.4
2018-01-12T02:14:42.821Z,1024.4
2018-01-12T02:15:51.649Z,1024.35
2018-01-12T02:17:00.478Z,1024.38
2018-01-12T02:18:09.454Z,1024.4
2018-01-12T02:19:18.284Z,1024.4
2018-01-12T02:20:27.662Z,1024.4
2018-01-12T02:21:36.493Z,1024.42
2018-01-12T02:22:45.316Z,1024.45
2018-01-12T02:23:54.197Z,1024.42
2018-01-12T02:25:03.029Z,1024.45
2018-01-12T02:26:11.855Z,1024.48
2018-01-12T02:27:20.682Z,1024.47
2018-01-12T02:28:29.511Z,1024.48
2018-01-12T02:29:38.587Z,1024.49
2018-01-12T02:30:47.417Z,1024.48
2018-01-12T02:31:56.244Z,1024.51
2018-01-12T02:33:05.071Z,1024.51
2018-01-12T02:34:13.901Z,1024.48
2018-01-12T02:35:23.206Z,1024.48
2018-01-12T02:36:32.034Z,1024.49
2018-01-12T02:37:40.865Z,1024.49
2018-01-12T02:38:49.689Z,1024.56
2018-01-12T02:39:58.518Z,1024.52
2018-01-12T02:41:07.395Z,1024.47
2018-01-12T02:42:16.506Z,1024.46
2018-01-12T02:43:25.340Z,1024.5
2018-01-12T02:44:34.167Z,1024.51
2018-01-12T02:45:42.993Z,1024.51
2018-01-12T02:46:51.822Z,1024.53
2018-01-12T02:48:00.650Z,1024.52
2018-01-12T02:49:09.478Z,1024.52
2018-01-12T02:50:18.307Z,1024.56
2018-01-12T02:51:27.134Z,1024.48
2018-01-12T02:52:36.212Z,1024.56
2018-01-12T02:53:45.036Z,1024.52
2018-01-12T02:54:53.864Z,1024.57
2018-01-12T02:56:02.693Z,1024.57
2018-01-12T02:57:11.520Z,1024.55
2018-01-12T02:58:20.724Z,1024.54
2018-01-12T02:59:29.555Z,1024.56
2018-01-12T03:00:38.379Z,1024.62
2018-01-12T03:01:47.206Z,1024.64
2018-01-12T03:02:56.580Z,1024.65
2018-01-12T03:04:05.510Z,1024.61
2018-01-12T03:05:14.342Z,1024.6
2018-01-12T03:06:23.162Z,1024.61
2018-01-12T03:07:31.996Z,1024.65
2018-01-12T03:08:41.100Z,1024.64
2018-01-12T03:09:50.032Z,1024.6
2018-01-12T03:10:58.855Z,1024.6
2018-01-12T03:12:07.685Z,1024.61
2018-01-12T03:13:16.513Z,1024.59
2018-01-12T03:14:25.343Z,1024.66
2018-01-12T03:15:34.324Z,1024.7
2018-01-12T03:16:43.152Z,1024.62
2018-01-12T03:17:51.982Z,1024.68
2018-01-12T03:19:00.810Z,1024.67
2018-01-12T03:20:09.637Z,1024.68
2018-01-12T03:21:18.512Z,1024.66
2018-01-12T03:22:27.340Z,1024.69
2018-01-12T03:23:36.169Z,1024.67
2018-01-12T03:24:44.997Z,1024.69
2018-01-12T03:25:53.825Z,1024.72
2018-01-12T03:27:02.705Z,1024.74
2018-01-12T03:28:11.534Z,1024.69
2018-01-12T03:29:20.360Z,1024.71
2018-01-12T03:30:29.190Z,1024.74
2018-01-12T03:31:38.020Z,1024.74
2018-01-12T03:32:46.949Z,1024.74
2018-01-12T03:33:56.053Z,1024.7
2018-01-12T03:35:05.430Z,1024.76
2018-01-12T03:36:14.255Z,1024.73
2018-01-12T03:37:23.083Z,1024.69
2018-01-12T03:38:32.011Z,1024.68
2018-01-12T03:39:40.839Z,1024.68
2018-01-12T03:40:49.667Z,1024.71
2018-01-12T03:41:58.496Z,1024.63
2018-01-12T03:43:07.327Z,1024.7
2018-01-12T03:44:16.255Z,1024.66
2018-01-12T03:45:25.084Z,1024.71
2018-01-12T03:46:33.910Z,1024.72
2018-01-12T03:47:43.014Z,1024.76
2018-01-12T03:48:52.118Z,1024.75
2018-01-12T03:50:01.050Z,1024.77
2018-01-12T03:51:09.876Z,1024.76
2018-01-12T03:52:18.705Z,1024.8
2018-01-12T03:53:27.533Z,1024.77
2018-01-12T03:54:36.360Z,1024.82
2018-01-12T03:55:45.438Z,1024.8
2018-01-12T03:56:54.264Z,1024.82
2018-01-12T03:58:03.095Z,1024.78
2018-01-12T03:59:12.195Z,1024.75
2018-01-12T04:00:21.297Z,1024.75
2018-01-12T04:01:30.125Z,1024.75
2018-01-12T04:02:38.952Z,1024.77
2018-01-12T04:03:48.102Z,1024.75
2018-01-12T04:04:56.930Z,1024.8
2018-01-12T04:06:05.759Z,1024.81
2018-01-12T04:07:14.889Z,1024.8
2018-01-12T04:08:23.715Z,1024.8
2018-01-12T04:09:32.818Z,1024.82
2018-01-12T04:10:41.645Z,1024.85
2018-01-12T04:11:50.472Z,1024.85
2018-01-12T04:12:59.351Z,1024.83
2018-01-12T04:14:08.179Z,1024.82
2018-01-12T04:15:17.007Z,1024.84
2018-01-12T04:16:25.834Z,1024.89
2018-01-12T04:17:34.661Z,1024.87
2018-01-12T04:18:43.790Z,1024.86
2018-01-12T04:19:52.615Z,1024.9
2018-01-12T04:21:01.721Z,1024.91
2018-01-12T04:22:10.823Z,1024.89
2018-01-12T04:23:19.653Z,1024.88
2018-01-12T04:24:28.633Z,1024.9
2018-01-12T04:25:37.461Z,1024.88
2018-01-12T04:26:46.567Z,1024.87
2018-01-12T04:27:55.394Z,1024.85
2018-01-12T04:29:04.500Z,1024.88
2018-01-12T04:30:13.429Z,1024.88
2018-01-12T04:31:22.258Z,1024.93
2018-01-12T04:32:31.088Z,1024.88
2018-01-12T04:33:39.914Z,1024.91
2018-01-12T04:34:49.013Z,1024.92
2018-01-12T04:35:57.995Z,1024.88
2018-01-12T04:37:06.824Z,1024.9
2018-01-12T04:38:15.651Z,1024.9
2018-01-12T04:39:24.479Z,1024.91
2018-01-12T04:40:33.314Z,1024.91
2018-01-12T04:41:42.415Z,1024.96
2018-01-12T04:42:51.244Z,1024.97
2018-01-12T04:44:00.080Z,1024.96
2018-01-12T04:45:08.907Z,1024.96
2018-01-12T04:46:17.735Z,1024.96
2018-01-12T04:47:26.615Z,1024.93
2018-01-12T04:48:35.717Z,1024.97
2018-01-12T04:49:44.546Z,1024.97
2018-01-12T04:50:53.645Z,1024.93
2018-01-12T04:52:02.473Z,1025
2018-01-12T04:53:11.352Z,1024.97
2018-01-12T04:54:20.179Z,1025.02
2018-01-12T04:55:29.005Z,1025
2018-01-12T04:56:37.832Z,1025
2018-01-12T04:57:46.675Z,1025
2018-01-12T04:58:55.516Z,1025.02
2018-01-12T05:00:04.359Z,1025.05
2018-01-12T05:01:13.200Z,1025.07
2018-01-12T05:02:22.043Z,1025.03
2018-01-12T05:03:31.159Z,1025.07
2018-01-12T05:04:40.099Z,1025.09
2018-01-12T05:05:49.217Z,1025.1
2018-01-12T05:06:58.058Z,1025.1
2018-01-12T05:08:07.177Z,1025.14
2018-01-12T05:09:16.019Z,1025.15
2018-01-12T05:10:24.862Z,1025.13
2018-01-12T05:11:33.705Z,1025.16
2018-01-12T05:12:42.546Z,1025.16
2018-01-12T05:13:51.388Z,1025.18
2018-01-12T05:15:00.242Z,1025.17
2018-01-12T05:16:09.740Z,1025.16
2018-01-12T05:17:18.589Z,1025.15
2018-01-12T05:18:27.431Z,1025.11
2018-01-12T05:19:36.270Z,1025.13
2018-01-12T05:20:45.112Z,1025.18
2018-01-12T05:21:53.979Z,1025.16
2018-01-12T05:23:02.790Z,1025.18
2018-01-12T05:24:11.622Z,1025.18
2018-01-12T05:25:20.452Z,1025.2
2018-01-12T05:26:29.281Z,1025.17
2018-01-12T05:27:38.210Z,1025.22
2018-01-12T05:28:47.315Z,1025.25
2018-01-12T05:29:56.142Z,1025.26
2018-01-12T05:31:04.972Z,1025.24
2018-01-12T05:32:14.077Z,1025.23
2018-01-12T05:33:23.054Z,1025.21
2018-01-12T05:34:31.882Z,1025.24
2018-01-12T05:35:40.754Z,1025.21
2018-01-12T05:36:49.544Z,1025.2
2018-01-12T05:37:58.384Z,1025.17
2018-01-12T05:39:07.645Z,1025.18
2018-01-12T05:40:16.510Z,1025.21
2018-01-12T05:41:25.346Z,1025.17
2018-01-12T05:42:34.445Z,1025.23
2018-01-12T05:43:43.275Z,1025.18
2018-01-12T05:44:52.406Z,1025.23
2018-01-12T05:46:01.513Z,1025.22
2018-01-12T05:47:10.341Z,1025.22
2018-01-12T05:48:19.220Z,1025.22
2018-01-12T05:49:28.049Z,1025.28
2018-01-12T05:50:36.928Z,1025.28
2018-01-12T05:51:45.754Z,1025.28
2018-01-12T05:52:54.580Z,1025.3
2018-01-12T05:54:03.407Z,1025.31
2018-01-12T05:55:12.239Z,1025.33
2018-01-12T05:56:21.070Z,1025.29
2018-01-12T05:57:29.897Z,1025.36
2018-01-12T05:58:38.725Z,1025.36
2018-01-12T05:59:47.555Z,1025.34
2018-01-12T06:00:56.383Z,1025.41
2018-01-12T06:02:05.661Z,1025.48
2018-01-12T06:03:14.489Z,1025.45
2018-01-12T06:04:23.316Z,1025.47
2018-01-12T06:05:32.146Z,1025.52
2018-01-12T06:06:40.972Z,1025.53
2018-01-12T06:07:49.800Z,1025.55
2018-01-12T06:08:58.628Z,1025.56
2018-01-12T06:10:07.455Z,1025.59
2018-01-12T06:11:16.283Z,1025.57
2018-01-12T06:12:25.113Z,1025.56
2018-01-12T06:13:34.370Z,1025.59
2018-01-12T06:14:43.197Z,1025.65
2018-01-12T06:15:52.303Z,1025.65
2018-01-12T06:17:01.191Z,1025.61
2018-01-12T06:18:09.963Z,1025.61
2018-01-12T06:19:18.789Z,1025.61
2018-01-12T06:20:27.618Z,1025.59
2018-01-12T06:21:36.447Z,1025.55
2018-01-12T06:22:45.276Z,1025.56
2018-01-12T06:23:54.105Z,1025.56
2018-01-12T06:25:03.087Z,1025.58
2018-01-12T06:26:11.918Z,1025.59
2018-01-12T06:27:20.746Z,1025.56
2018-01-12T06:28:29.581Z,1025.57
2018-01-12T06:29:38.683Z,1025.57
2018-01-12T06:30:47.559Z,1025.54
2018-01-12T06:31:56.386Z,1025.57
2018-01-12T06:33:05.213Z,1025.63
2018-01-12T06:34:14.316Z,1025.61
2018-01-12T06:35:23.147Z,1025.59
2018-01-12T06:36:32.649Z,1025.61
2018-01-12T06:37:41.752Z,1025.62
2018-01-12T06:38:50.580Z,1025.58
2018-01-12T06:39:59.405Z,1025.66
2018-01-12T06:41:08.234Z,1025.67
2018-01-12T06:42:17.160Z,1025.66
2018-01-12T06:43:26.266Z,1025.63
2018-01-12T06:44:35.095Z,1025.65
2018-01-12T06:45:43.923Z,1025.7
2018-01-12T06:46:52.752Z,1025.71
2018-01-12T06:48:01.880Z,1025.72
2018-01-12T06:49:10.710Z,1025.72
2018-01-12T06:50:19.538Z,1025.76
2018-01-12T06:51:28.643Z,1025.75
2018-01-12T06:52:37.470Z,1025.75
2018-01-12T06:53:46.347Z,1025.78
2018-01-12T06:54:55.175Z,1025.75
2018-01-12T06:56:04.002Z,1025.79
2018-01-12T06:57:12.883Z,1025.78
2018-01-12T06:58:21.712Z,1025.8
2018-01-12T06:59:30.961Z,1025.79
2018-01-12T07:00:40.067Z,1025.81
2018-01-12T07:01:48.893Z,1025.82
2018-01-12T07:02:57.721Z,1025.85
2018-01-12T07:04:06.550Z,1025.9
2018-01-12T07:05:15.715Z,1025.9
2018-01-12T07:06:24.539Z,1025.94
2018-01-12T07:07:33.646Z,1025.96
2018-01-12T07:08:42.476Z,1025.95
2018-01-12T07:09:51.308Z,1026.01
2018-01-12T07:11:00.463Z,1026.02
2018-01-12T07:12:09.304Z,1025.99
2018-01-12T07:13:18.139Z,1025.99
2018-01-12T07:14:27.513Z,1025.99
2018-01-12T07:15:36.342Z,1026
2018-01-12T07:16:45.218Z,1026.01
2018-01-12T07:17:54.046Z,1026.06
2018-01-12T07:19:02.883Z,1026.06
2018-01-12T07:20:11.712Z,1026.07
2018-01-12T07:21:20.542Z,1026.06
2018-01-12T07:22:29.520Z,1026.04
2018-01-12T07:23:38.346Z,1026.11
2018-01-12T07:24:47.175Z,1026.09
2018-01-12T07:25:56.012Z,1026.16
2018-01-12T07:27:04.840Z,1026.14
2018-01-12T07:28:13.666Z,1026.21
2018-01-12T07:29:22.498Z,1026.18
2018-01-12T07:30:31.328Z,1026.26
2018-01-12T07:31:40.166Z,1026.27
2018-01-12T07:32:48.981Z,1026.26
2018-01-12T07:33:58.485Z,1026.26
2018-01-12T07:35:07.312Z,1026.25
2018-01-12T07:36:16.416Z,1026.31
2018-01-12T07:37:25.244Z,1026.34
2018-01-12T07:38:34.071Z,1026.34
2018-01-12T07:39:43.050Z,1026.37
2018-01-12T07:40:51.877Z,1026.37
2018-01-12T07:42:00.705Z,1026.4
2018-01-12T07:43:09.534Z,1026.43
2018-01-12T07:44:18.362Z,1026.45
2018-01-12T07:45:27.442Z,1026.47
2018-01-12T07:46:36.273Z,1026.52
2018-01-12T07:47:45.102Z,1026.52
2018-01-12T07:48:53.929Z,1026.57
2018-01-12T07:50:02.756Z,1026.53
2018-01-12T07:51:11.586Z,1026.55
2018-01-12T07:52:20.412Z,1026.62
2018-01-12T07:53:29.240Z,1026.57
2018-01-12T07:54:38.119Z,1026.61
2018-01-12T07:55:46.894Z,1026.65
2018-01-12T07:56:55.873Z,1026.67
2018-01-12T07:58:04.976Z,1026.68
2018-01-12T07:59:14.080Z,1026.67
2018-01-12T08:00:23.181Z,1026.74
2018-01-12T08:01:32.014Z,1026.72
2018-01-12T08:02:40.845Z,1026.74
2018-01-12T08:03:49.669Z,1026.79
2018-01-12T08:04:58.497Z,1026.82
2018-01-12T08:06:07.324Z,1026.87
2018-01-12T08:07:16.151Z,1026.87
2018-01-12T08:08:25.028Z,1026.89
2018-01-12T08:09:33.857Z,1026.91
2018-01-12T08:10:42.691Z,1026.9
2018-01-12T08:11:51.799Z,1026.89
2018-01-12T08:13:00.624Z,1026.88
2018-01-12T08:14:09.451Z,1026.86
2018-01-12T08:15:18.277Z,1026.86
2018-01-12T08:16:27.103Z,1026.9
2018-01-12T08:17:35.930Z,1026.87
2018-01-12T08:18:44.757Z,1026.89
2018-01-12T08:19:53.734Z,1026.92
2018-01-12T08:21:02.563Z,1026.94
2018-01-12T08:22:11.393Z,1026.98
2018-01-12T08:23:20.218Z,1026.95
2018-01-12T08:24:29.045Z,1026.98
2018-01-12T08:25:37.879Z,1026.96
2018-01-12T08:26:46.706Z,1027
2018-01-12T08:27:55.535Z,1027
2018-01-12T08:29:04.363Z,1027.02
2018-01-12T08:30:13.187Z,1026.98
2018-01-12T08:31:22.067Z,1027.03
2018-01-12T08:32:30.894Z,1027.05
2018-01-12T08:33:39.719Z,1027.02
2018-01-12T08:34:48.545Z,1026.98
2018-01-12T08:35:57.371Z,1026.98
2018-01-12T08:37:06.246Z,1026.98
2018-01-12T08:38:15.072Z,1027.02
2018-01-12T08:39:24.185Z,1027.02
2018-01-12T08:40:33.010Z,1027.04
2018-01-12T08:41:42.113Z,1027.09
2018-01-12T08:42:51.090Z,1027.08
2018-01-12T08:43:59.916Z,1027.1
2018-01-12T08:45:08.744Z,1027.1
2018-01-12T08:46:17.570Z,1027.11
2018-01-12T08:47:26.397Z,1027.07
2018-01-12T08:48:35.225Z,1027.09
2018-01-12T08:49:44.051Z,1027.08
2018-01-12T08:50:52.879Z,1027.11
2018-01-12T08:52:01.712Z,1027.11
2018-01-12T08:53:10.533Z,1027.16
2018-01-12T08:54:19.409Z,1027.16
2018-01-12T08:55:28.235Z,1027.19
2018-01-12T08:56:37.064Z,1027.2
2018-01-12T08:57:45.892Z,1027.25
2018-01-12T08:58:54.718Z,1027.23
2018-01-12T09:00:03.695Z,1027.31
2018-01-12T09:01:12.522Z,1027.32
2018-01-12T09:02:21.628Z,1027.32
2018-01-12T09:03:30.456Z,1027.38
2018-01-12T09:04:39.285Z,1027.38
2018-01-12T09:05:48.537Z,1027.43
2018-01-12T09:06:57.366Z,1027.45
2018-01-12T09:08:06.191Z,1027.41
2018-01-12T09:09:15.023Z,1027.43
2018-01-12T09:10:23.845Z,1027.47
2018-01-12T09:11:32.722Z,1027.48
2018-01-12T09:12:41.550Z,1027.48
2018-01-12T09:13:50.380Z,1027.54
2018-01-12T09:14:59.477Z,1027.48
2018-01-12T09:16:08.302Z,1027.51
2018-01-12T09:17:17.129Z,1027.53
2018-01-12T09:18:25.957Z,1027.58
2018-01-12T09:19:34.785Z,1027.59
2018-01-12T09:20:43.612Z,1027.6
2018-01-12T09:21:52.440Z,1027.63
2018-01-12T09:23:01.318Z,1027.61
2018-01-12T09:24:10.146Z,1027.65
2018-01-12T09:25:19.249Z,1027.62
2018-01-12T09:26:28.075Z,1027.64
2018-01-12T09:27:36.902Z,1027.63
2018-01-12T09:28:45.879Z,1027.68
2018-01-12T09:29:54.706Z,1027.69
2018-01-12T09:31:03.533Z,1027.71
2018-01-12T09:32:12.411Z,1027.72
2018-01-12T09:33:21.183Z,1027.74
2018-01-12T09:34:30.162Z,1027.75
2018-01-12T09:35:39.261Z,1027.79
2018-01-12T09:36:48.087Z,1027.83
2018-01-12T09:37:57.187Z,1027.81
2018-01-12T09:39:06.032Z,1027.84
2018-01-12T09:40:14.911Z,1027.87
2018-01-12T09:41:24.022Z,1027.89
2018-01-12T09:42:32.850Z,1027.89
2018-01-12T09:43:41.678Z,1027.88
2018-01-12T09:44:50.781Z,1027.96
2018-01-12T09:45:59.907Z,1027.94
2018-01-12T09:47:09.008Z,1027.95
2018-01-12T09:48:18.108Z,1027.96
2018-01-12T09:49:26.936Z,1027.94
2018-01-12T09:50:35.761Z,1027.96
2018-01-12T09:51:44.920Z,1028.01
2018-01-12T09:52:53.746Z,1028.01
2018-01-12T09:54:02.851Z,1027.99
2018-01-12T09:55:11.679Z,1027.96
2018-01-12T09:56:20.780Z,1027.99
2018-01-12T09:57:29.758Z,1027.94
2018-01-12T09:58:38.635Z,1028
2018-01-12T09:59:47.462Z,1028
2018-01-12T10:00:56.290Z,1028.01
2018-01-12T10:02:05.118Z,1027.96
2018-01-12T10:03:13.996Z,1027.99
2018-01-12T10:04:22.827Z,1027.97
2018-01-12T10:05:31.652Z,1028.01
2018-01-12T10:06:40.481Z,1027.99
2018-01-12T10:07:49.310Z,1027.97
2018-01-12T10:08:58.134Z,1027.98
2018-01-12T10:10:06.961Z,1028.01
2018-01-12T10:11:15.787Z,1027.97
2018-01-12T10:12:24.615Z,1028.05
2018-01-12T10:13:33.442Z,1028.01
2018-01-12T10:14:42.569Z,1028.03
2018-01-12T10:15:51.399Z,1028.07
2018-01-12T10:17:00.227Z,1028.06
2018-01-12T10:18:09.332Z,1028.06
2018-01-12T10:19:18.158Z,1028.05
2018-01-12T10:20:27.136Z,1028.1
2018-01-12T10:21:35.961Z,1028.01
2018-01-12T10:22:44.788Z,1028.04
2018-01-12T10:23:53.633Z,1028.03
2018-01-12T10:25:02.442Z,1028.03
2018-01-12T10:26:11.470Z,1028.01
2018-01-12T10:27:20.298Z,1028.02
2018-01-12T10:28:29.126Z,1028.03
2018-01-12T10:29:37.954Z,1028.03
2018-01-12T10:30:46.783Z,1028.04
2018-01-12T10:31:55.609Z,1028.04
2018-01-12T10:33:04.436Z,1028.03
2018-01-12T10:34:13.262Z,1028.01
2018-01-12T10:35:22.090Z,1028.02
2018-01-12T10:36:30.918Z,1028.05
2018-01-12T10:37:39.897Z,1028.08
2018-01-12T10:38:48.727Z,1028.03
2018-01-12T10:39:57.827Z,1028.01
2018-01-12T10:41:06.654Z,1028.03
2018-01-12T10:42:15.479Z,1028.03
2018-01-12T10:43:24.407Z,1028.05
2018-01-12T10:44:33.235Z,1028.02
2018-01-12T10:45:42.063Z,1028.05
2018-01-12T10:46:51.164Z,1028.06
2018-01-12T10:47:59.992Z,1028.03
2018-01-12T10:49:08.923Z,1028.06
2018-01-12T10:50:17.752Z,1028.09
2018-01-12T10:51:26.851Z,1028.11
2018-01-12T10:52:35.678Z,1028.11
2018-01-12T10:53:44.551Z,1028.09
2018-01-12T10:54:53.335Z,1028.1
2018-01-12T10:56:02.438Z,1028.12
2018-01-12T10:57:11.267Z,1028.09
2018-01-12T10:58:20.091Z,1028.13
2018-01-12T10:59:28.920Z,1028.2
2018-01-12T11:00:37.796Z,1028.15
2018-01-12T11:01:46.623Z,1028.14
2018-01-12T11:02:55.725Z,1028.11
2018-01-12T11:04:04.551Z,1028.17
2018-01-12T11:05:13.379Z,1028.19
2018-01-12T11:06:22.507Z,1028.19
2018-01-12T11:07:31.333Z,1028.19
2018-01-12T11:08:40.161Z,1028.21
2018-01-12T11:09:48.989Z,1028.2
2018-01-12T11:10:57.816Z,1028.21
2018-01-12T11:12:06.944Z,1028.22
2018-01-12T11:13:15.772Z,1028.17
2018-01-12T11:14:24.599Z,1028.17
2018-01-12T11:15:33.430Z,1028.18
2018-01-12T11:16:42.535Z,1028.16
2018-01-12T11:17:51.406Z,1028.19
2018-01-12T11:19:00.521Z,1028.17
2018-01-12T11:20:09.670Z,1028.14
2018-01-12T11:21:18.497Z,1028.16
2018-01-12T11:22:27.324Z,1028.16
2018-01-12T11:23:36.250Z,1028.2
2018-01-12T11:24:45.076Z,1028.18
2018-01-12T11:25:53.903Z,1028.16
2018-01-12T11:27:02.730Z,1028.15
2018-01-12T11:28:11.558Z,1028.18
2018-01-12T11:29:20.393Z,1028.18
2018-01-12T11:30:29.495Z,1028.18
2018-01-12T11:31:38.324Z,1028.23
2018-01-12T11:32:47.152Z,1028.19
2018-01-12T11:33:55.983Z,1028.24
2018-01-12T11:35:05.357Z,1028.23
2018-01-12T11:36:14.183Z,1028.23
2018-01-12T11:37:23.008Z,1028.19
2018-01-12T11:38:31.841Z,1028.18
2018-01-12T11:39:40.666Z,1028.19
2018-01-12T11:40:49.593Z,1028.17
2018-01-12T11:41:58.420Z,1028.12
2018-01-12T11:43:07.248Z,1028.13
2018-01-12T11:44:16.076Z,1028.11
2018-01-12T11:45:24.902Z,1028.09
2018-01-12T11:46:33.878Z,1028.12
2018-01-12T11:47:42.707Z,1028.08
2018-01-12T11:48:51.536Z,1028.11
2018-01-12T11:50:00.367Z,1028.09
2018-01-12T11:51:09.193Z,1028.09
2018-01-12T11:52:18.175Z,1028.11
2018-01-12T11:53:27.274Z,1028.09
2018-01-12T11:54:36.101Z,1028.13
2018-01-12T11:55:44.926Z,1028.14
2018-01-12T11:56:53.793Z,1028.07
2018-01-12T11:58:02.730Z,1028.09
2018-01-12T11:59:11.557Z,1028.13
2018-01-12T12:00:20.385Z,1028.14
2018-01-12T12:01:29.483Z,1028.1
2018-01-12T12:02:38.312Z,1028.05
2018-01-12T12:03:47.413Z,1028.12
2018-01-12T12:04:56.240Z,1028.07
2018-01-12T12:06:05.064Z,1028.11
2018-01-12T12:07:13.894Z,1028.06
2018-01-12T12:08:22.998Z,1028.04
2018-01-12T12:09:31.925Z,1028.09
2018-01-12T12:10:40.755Z,1028.05
2018-01-12T12:11:49.583Z,1028.09
2018-01-12T12:12:58.410Z,1028.07
2018-01-12T12:14:07.238Z,1028.07
2018-01-12T12:15:16.366Z,1028.09
2018-01-12T12:16:25.213Z,1028.05
2018-01-12T12:17:34.022Z,1028.04
2018-01-12T12:18:42.849Z,1028.05
2018-01-12T12:19:51.677Z,1028.1
2018-01-12T12:21:00.505Z,1028.1
2018-01-12T12:22:09.332Z,1028.1
2018-01-12T12:23:18.160Z,1028.03
2018-01-12T12:24:26.991Z,1028.04
2018-01-12T12:25:35.821Z,1028.04
2018-01-12T12:26:44.898Z,1028.01
2018-01-12T12:27:53.726Z,1028.03
2018-01-12T12:29:02.831Z,1028.04
2018-01-12T12:30:11.661Z,1028.03
2018-01-12T12:31:20.497Z,1028.05
2018-01-12T12:32:29.325Z,1028.06
2018-01-12T12:33:38.154Z,1028.06
2018-01-12T12:34:47.297Z,1028.06
2018-01-12T12:35:56.078Z,1028.09
2018-01-12T12:37:04.910Z,1028.06
2018-01-12T12:38:13.884Z,1028.14
2018-01-12T12:39:22.713Z,1028.13
2018-01-12T12:40:31.542Z,1028.14
2018-01-12T12:41:40.370Z,1028.14
2018-01-12T12:42:49.194Z,1028.11
2018-01-12T12:43:58.174Z,1028.07
2018-01-12T12:45:06.999Z,1028.09
2018-01-12T12:46:15.826Z,1028.08
2018-01-12T12:47:24.653Z,1028.11
2018-01-12T12:48:33.480Z,1028.07
2018-01-12T12:49:42.306Z,1028.05
2018-01-12T12:50:51.133Z,1028.05
2018-01-12T12:51:59.960Z,1028.1
2018-01-12T12:53:08.786Z,1028.14
2018-01-12T12:54:17.614Z,1028.14
2018-01-12T12:55:26.444Z,1028.12
2018-01-12T12:56:35.269Z,1028.12
2018-01-12T12:57:44.097Z,1028.1
2018-01-12T12:58:52.926Z,1028.11
2018-01-12T13:00:01.756Z,1028.14
2018-01-12T13:01:10.906Z,1028.13
2018-01-12T13:02:19.734Z,1028.15
2018-01-12T13:03:29.111Z,1028.11
2018-01-12T13:04:37.936Z,1028.13
2018-01-12T13:05:46.765Z,1028.1
2018-01-12T13:06:55.594Z,1028.11
2018-01-12T13:08:04.420Z,1028.08
2018-01-12T13:09:13.247Z,1028.08
2018-01-12T13:10:22.077Z,1028.12
2018-01-12T13:11:30.902Z,1028.06
2018-01-12T13:12:39.830Z,1028.08
2018-01-12T13:13:48.657Z,1028.1
2018-01-12T13:14:57.486Z,1028.12
2018-01-12T13:16:06.314Z,1028.11
2018-01-12T13:17:15.423Z,1028.09
2018-01-12T13:18:24.344Z,1028.07
2018-01-12T13:19:33.171Z,1028.08
2018-01-12T13:20:41.997Z,1028.04
2018-01-12T13:21:50.825Z,1028.04
2018-01-12T13:22:59.654Z,1028.04
2018-01-12T13:24:08.858Z,1028.1
2018-01-12T13:25:17.685Z,1028.07
2018-01-12T13:26:26.513Z,1028.12
2018-01-12T13:27:35.342Z,1028.14
2018-01-12T13:28:44.169Z,1028.11
2018-01-12T13:29:53.296Z,1028.16
2018-01-12T13:31:02.121Z,1028.12
2018-01-12T13:32:10.950Z,1028.12
2018-01-12T13:33:19.779Z,1028.16
2018-01-12T13:34:28.606Z,1028.11
2018-01-12T13:35:37.584Z,1028.13
2018-01-12T13:36:46.688Z,1028.17
2018-01-12T13:37:55.517Z,1028.18
2018-01-12T13:39:04.340Z,1028.16
2018-01-12T13:40:13.169Z,1028.14
2018-01-12T13:41:22.147Z,1028.12
2018-01-12T13:42:30.978Z,1028.16
2018-01-12T13:43:40.100Z,1028.17
2018-01-12T13:44:48.906Z,1028.15
2018-01-12T13:45:57.734Z,1028.17
2018-01-12T13:47:06.713Z,1028.13
2018-01-12T13:48:15.540Z,1028.15
2018-01-12T13:49:24.367Z,1028.19
2018-01-12T13:50:33.193Z,1028.24
2018-01-12T13:51:42.023Z,1028.22
2018-01-12T13:52:50.851Z,1028.22
2018-01-12T13:53:59.678Z,1028.23
2018-01-12T13:55:08.505Z,1028.27
2018-01-12T13:56:17.330Z,1028.29